OAL195 RJKA-RJFG
Flight info
| Callsign | OAL195 |
|---|---|
| Flight time | 0h 45m |
| Altitude | 17000 |
| Route | RURIK B597 TGE |
| Aircraft | TBM8/L-SDFGRWY/S |
Departure
| Time | 2026-04-27 16:55 |
|---|---|
| Airport | Amami Airport (RJKA) |
Arrival
| Time | 2026-04-27 17:41 |
|---|---|
| Airport | New Tanegashima Airport (RJFG) |
| Time | Latitude | Longitude | Altitude | Speed | Heading |
|---|---|---|---|---|---|
| 2026-04-27 16:46 | 28.43083 | 129.70967 | 16 ft | 0 kts | 296° |
| 2026-04-27 16:52 | 28.43084 | 129.70963 | 16 ft | 2 kts | 275° |
| 2026-04-27 16:52 | 28.43035 | 129.70962 | 16 ft | 14 kts | 174° |
| 2026-04-27 16:52 | 28.42923 | 129.70961 | 16 ft | 12 kts | 197° |
| 2026-04-27 16:52 | 28.42840 | 129.70917 | 16 ft | 15 kts | 206° |
| 2026-04-27 16:53 | 28.42761 | 129.70876 | 16 ft | 9 kts | 201° |
| 2026-04-27 16:53 | 28.42710 | 129.70919 | 16 ft | 12 kts | 116° |
| 2026-04-27 16:53 | 28.42669 | 129.71008 | 18 ft | 10 kts | 116° |
| 2026-04-27 16:53 | 28.42680 | 129.71040 | 17 ft | 3 kts | 18° |
| 2026-04-27 16:54 | 28.42694 | 129.71048 | 17 ft | 0 kts | 27° |
| 2026-04-27 16:54 | 28.42862 | 129.71140 | 16 ft | 61 kts | 26° |
| 2026-04-27 16:55 | 28.43425 | 129.71454 | 77 ft | 111 kts | 26° |
| 2026-04-27 16:55 | 28.44154 | 129.71884 | 454 ft | 124 kts | 17° |
| 2026-04-27 16:55 | 28.44988 | 129.72312 | 868 ft | 139 kts | 26° |
| 2026-04-27 16:55 | 28.45868 | 129.72836 | 1307 ft | 150 kts | 25° |
| 2026-04-27 16:56 | 28.46832 | 129.73397 | 1766 ft | 160 kts | 26° |
| 2026-04-27 16:56 | 28.47849 | 129.73983 | 2222 ft | 167 kts | 26° |
| 2026-04-27 16:56 | 28.48904 | 129.74586 | 2682 ft | 172 kts | 27° |
| 2026-04-27 16:56 | 28.49982 | 129.75196 | 3255 ft | 175 kts | 26° |
| 2026-04-27 16:57 | 28.51077 | 129.75822 | 3817 ft | 177 kts | 26° |
| 2026-04-27 16:57 | 28.52183 | 129.76457 | 4403 ft | 178 kts | 25° |
| 2026-04-27 16:57 | 28.53286 | 129.77090 | 5015 ft | 177 kts | 24° |
| 2026-04-27 16:57 | 28.54383 | 129.77721 | 5619 ft | 176 kts | 24° |
| 2026-04-27 16:58 | 28.55469 | 129.78344 | 6237 ft | 174 kts | 24° |
| 2026-04-27 16:58 | 28.56540 | 129.78959 | 6831 ft | 171 kts | 23° |
| 2026-04-27 16:58 | 28.57597 | 129.79564 | 7402 ft | 169 kts | 23° |
| 2026-04-27 16:58 | 28.58640 | 129.80161 | 7996 ft | 166 kts | 22° |
| 2026-04-27 16:59 | 28.59663 | 129.80748 | 8594 ft | 163 kts | 22° |
| 2026-04-27 16:59 | 28.60664 | 129.81322 | 9200 ft | 159 kts | 21° |
| 2026-04-27 16:59 | 28.61645 | 129.81884 | 9770 ft | 159 kts | 21° |
| 2026-04-27 16:59 | 28.62626 | 129.82450 | 10230 ft | 162 kts | 21° |
| 2026-04-27 17:00 | 28.64322 | 129.83428 | 11003 ft | 166 kts | 20° |
| 2026-04-27 17:00 | 28.65717 | 129.84229 | 11611 ft | 170 kts | 20° |
| 2026-04-27 17:00 | 28.66788 | 129.84847 | 12050 ft | 175 kts | 20° |
| 2026-04-27 17:01 | 28.67886 | 129.85479 | 12494 ft | 179 kts | 20° |
| 2026-04-27 17:01 | 28.69009 | 129.86126 | 12958 ft | 182 kts | 20° |
| 2026-04-27 17:01 | 28.70152 | 129.86784 | 13420 ft | 185 kts | 19° |
| 2026-04-27 17:01 | 28.71313 | 129.87452 | 13879 ft | 188 kts | 19° |
| 2026-04-27 17:02 | 28.72477 | 129.88121 | 14283 ft | 191 kts | 19° |
| 2026-04-27 17:02 | 28.73669 | 129.88808 | 14699 ft | 193 kts | 18° |
| 2026-04-27 17:02 | 28.74876 | 129.89505 | 15118 ft | 195 kts | 18° |
| 2026-04-27 17:02 | 28.76092 | 129.90204 | 15538 ft | 196 kts | 18° |
| 2026-04-27 17:03 | 28.77315 | 129.90910 | 15985 ft | 197 kts | 17° |
| 2026-04-27 17:03 | 28.78542 | 129.91617 | 16408 ft | 198 kts | 17° |
| 2026-04-27 17:03 | 28.79768 | 129.92325 | 16847 ft | 198 kts | 16° |
| 2026-04-27 17:03 | 28.81034 | 129.93046 | 17032 ft | 215 kts | 16° |
| 2026-04-27 17:04 | 28.82444 | 129.93858 | 17045 ft | 238 kts | 18° |
| 2026-04-27 17:04 | 28.83966 | 129.94756 | 17044 ft | 253 kts | 19° |
| 2026-04-27 17:04 | 28.85562 | 129.95685 | 17044 ft | 260 kts | 19° |
| 2026-04-27 17:04 | 28.87180 | 129.96622 | 17042 ft | 261 kts | 19° |
| 2026-04-27 17:05 | 28.88805 | 129.97555 | 17058 ft | 261 kts | 19° |
| 2026-04-27 17:05 | 28.90434 | 129.98492 | 17043 ft | 263 kts | 19° |
| 2026-04-27 17:05 | 28.92065 | 129.99436 | 17044 ft | 263 kts | 19° |
| 2026-04-27 17:05 | 28.93146 | 130.00062 | 17042 ft | 263 kts | 19° |
| 2026-04-27 17:06 | 28.95326 | 130.01322 | 17042 ft | 262 kts | 19° |
| 2026-04-27 17:06 | 28.96940 | 130.02262 | 17036 ft | 257 kts | 19° |
| 2026-04-27 17:06 | 28.98515 | 130.03180 | 17033 ft | 251 kts | 19° |
| 2026-04-27 17:06 | 29.00066 | 130.04071 | 17024 ft | 247 kts | 18° |
| 2026-04-27 17:07 | 29.01578 | 130.04943 | 17023 ft | 245 kts | 18° |
| 2026-04-27 17:07 | 29.03092 | 130.05821 | 17023 ft | 243 kts | 18° |
| 2026-04-27 17:07 | 29.04600 | 130.06695 | 17023 ft | 243 kts | 18° |
| 2026-04-27 17:07 | 29.06123 | 130.07570 | 17020 ft | 247 kts | 18° |
| 2026-04-27 17:08 | 29.07673 | 130.08467 | 17035 ft | 252 kts | 19° |
| 2026-04-27 17:08 | 29.09246 | 130.09385 | 17039 ft | 255 kts | 19° |
| 2026-04-27 17:08 | 29.10836 | 130.10313 | 17042 ft | 257 kts | 19° |
| 2026-04-27 17:08 | 29.12437 | 130.11243 | 17036 ft | 259 kts | 19° |
| 2026-04-27 17:09 | 29.14050 | 130.12179 | 17035 ft | 260 kts | 19° |
| 2026-04-27 17:09 | 29.15663 | 130.13117 | 17034 ft | 261 kts | 19° |
| 2026-04-27 17:09 | 29.17282 | 130.14058 | 17036 ft | 261 kts | 19° |
| 2026-04-27 17:09 | 29.18907 | 130.15004 | 17035 ft | 261 kts | 19° |
| 2026-04-27 17:10 | 29.20513 | 130.15938 | 17036 ft | 262 kts | 19° |
| 2026-04-27 17:10 | 29.22137 | 130.16883 | 17044 ft | 262 kts | 19° |
| 2026-04-27 17:10 | 29.23761 | 130.17829 | 17038 ft | 262 kts | 19° |
| 2026-04-27 17:10 | 29.25384 | 130.18774 | 17040 ft | 262 kts | 19° |
| 2026-04-27 17:11 | 29.27010 | 130.19722 | 17034 ft | 262 kts | 19° |
| 2026-04-27 17:11 | 29.29733 | 130.21309 | 17031 ft | 262 kts | 19° |
| 2026-04-27 17:11 | 29.31335 | 130.22245 | 17032 ft | 261 kts | 19° |
| 2026-04-27 17:12 | 29.34568 | 130.24151 | 17028 ft | 261 kts | 19° |
| 2026-04-27 17:12 | 29.36184 | 130.25102 | 17027 ft | 261 kts | 19° |
| 2026-04-27 17:12 | 29.37803 | 130.26054 | 17022 ft | 261 kts | 19° |
| 2026-04-27 17:13 | 29.39418 | 130.27004 | 17018 ft | 261 kts | 19° |
| 2026-04-27 17:13 | 29.41036 | 130.27958 | 17020 ft | 261 kts | 19° |
| 2026-04-27 17:13 | 29.42654 | 130.28911 | 17020 ft | 261 kts | 19° |
| 2026-04-27 17:13 | 29.44271 | 130.29864 | 17020 ft | 261 kts | 19° |
| 2026-04-27 17:14 | 29.45887 | 130.30816 | 17020 ft | 261 kts | 19° |
| 2026-04-27 17:14 | 29.47506 | 130.31771 | 17020 ft | 261 kts | 19° |
| 2026-04-27 17:14 | 29.49126 | 130.32727 | 17020 ft | 261 kts | 19° |
| 2026-04-27 17:14 | 29.50742 | 130.33681 | 17020 ft | 261 kts | 19° |
| 2026-04-27 17:15 | 29.52357 | 130.34635 | 17020 ft | 261 kts | 19° |
| 2026-04-27 17:15 | 29.53974 | 130.35589 | 17020 ft | 261 kts | 19° |
| 2026-04-27 17:15 | 29.55568 | 130.36531 | 17020 ft | 261 kts | 19° |
| 2026-04-27 17:15 | 29.57184 | 130.37487 | 17020 ft | 261 kts | 19° |
| 2026-04-27 17:16 | 29.58799 | 130.38441 | 17019 ft | 261 kts | 19° |
| 2026-04-27 17:16 | 29.60416 | 130.39398 | 17018 ft | 261 kts | 19° |
| 2026-04-27 17:16 | 29.62038 | 130.40358 | 17018 ft | 261 kts | 19° |
| 2026-04-27 17:16 | 29.63653 | 130.41315 | 17031 ft | 261 kts | 19° |
| 2026-04-27 17:17 | 29.65246 | 130.42257 | 17032 ft | 261 kts | 19° |
| 2026-04-27 17:17 | 29.66859 | 130.43213 | 17031 ft | 261 kts | 19° |
| 2026-04-27 17:17 | 29.68472 | 130.44168 | 17032 ft | 260 kts | 19° |
| 2026-04-27 17:18 | 29.71692 | 130.46078 | 17030 ft | 260 kts | 19° |
| 2026-04-27 17:18 | 29.73303 | 130.47033 | 17030 ft | 260 kts | 19° |
| 2026-04-27 17:18 | 29.74917 | 130.47991 | 17023 ft | 260 kts | 19° |
| 2026-04-27 17:18 | 29.76528 | 130.48947 | 17023 ft | 260 kts | 19° |
| 2026-04-27 17:19 | 29.78140 | 130.49906 | 17020 ft | 261 kts | 19° |
| 2026-04-27 17:19 | 29.79752 | 130.50862 | 17021 ft | 261 kts | 19° |
| 2026-04-27 17:19 | 29.81365 | 130.51821 | 17030 ft | 261 kts | 19° |
| 2026-04-27 17:19 | 29.82955 | 130.52767 | 17030 ft | 260 kts | 19° |
| 2026-04-27 17:20 | 29.84566 | 130.53724 | 17030 ft | 260 kts | 19° |
| 2026-04-27 17:20 | 29.86171 | 130.54680 | 17030 ft | 260 kts | 19° |
| 2026-04-27 17:20 | 29.87780 | 130.55638 | 17030 ft | 260 kts | 19° |
| 2026-04-27 17:20 | 29.89384 | 130.56592 | 17029 ft | 260 kts | 19° |
| 2026-04-27 17:21 | 29.90989 | 130.57548 | 17032 ft | 260 kts | 19° |
| 2026-04-27 17:21 | 29.92593 | 130.58504 | 17031 ft | 260 kts | 19° |
| 2026-04-27 17:21 | 29.94198 | 130.59461 | 17031 ft | 260 kts | 19° |
| 2026-04-27 17:21 | 29.95801 | 130.60417 | 17031 ft | 260 kts | 19° |
| 2026-04-27 17:22 | 29.97405 | 130.61373 | 17031 ft | 259 kts | 19° |
| 2026-04-27 17:22 | 29.99012 | 130.62333 | 17028 ft | 259 kts | 19° |
| 2026-04-27 17:22 | 30.00614 | 130.63289 | 17028 ft | 259 kts | 19° |
| 2026-04-27 17:22 | 30.02218 | 130.64246 | 17028 ft | 259 kts | 19° |
| 2026-04-27 17:23 | 30.03822 | 130.65205 | 16912 ft | 261 kts | 20° |
| 2026-04-27 17:23 | 30.05405 | 130.66165 | 16567 ft | 260 kts | 20° |
| 2026-04-27 17:23 | 30.07005 | 130.67126 | 16221 ft | 258 kts | 20° |
| 2026-04-27 17:23 | 30.08600 | 130.68073 | 15878 ft | 256 kts | 20° |
| 2026-04-27 17:24 | 30.10182 | 130.69016 | 15538 ft | 255 kts | 20° |
| 2026-04-27 17:24 | 30.11750 | 130.69954 | 15205 ft | 253 kts | 21° |
| 2026-04-27 17:24 | 30.13305 | 130.70887 | 14871 ft | 251 kts | 21° |
| 2026-04-27 17:24 | 30.14849 | 130.71812 | 14544 ft | 249 kts | 21° |
| 2026-04-27 17:25 | 30.16386 | 130.72734 | 14232 ft | 247 kts | 21° |
| 2026-04-27 17:25 | 30.17905 | 130.73644 | 13911 ft | 245 kts | 21° |
| 2026-04-27 17:25 | 30.19410 | 130.74547 | 13556 ft | 243 kts | 21° |
| 2026-04-27 17:25 | 30.20901 | 130.75442 | 13198 ft | 240 kts | 21° |
| 2026-04-27 17:26 | 30.22377 | 130.76328 | 12842 ft | 238 kts | 21° |
| 2026-04-27 17:26 | 30.23835 | 130.77203 | 12490 ft | 235 kts | 21° |
| 2026-04-27 17:26 | 30.25279 | 130.78069 | 12144 ft | 232 kts | 21° |
| 2026-04-27 17:26 | 30.26706 | 130.78928 | 11799 ft | 230 kts | 21° |
| 2026-04-27 17:27 | 30.28119 | 130.79777 | 11456 ft | 227 kts | 21° |
| 2026-04-27 17:27 | 30.29514 | 130.80616 | 11120 ft | 225 kts | 21° |
| 2026-04-27 17:27 | 30.30897 | 130.81447 | 10785 ft | 223 kts | 21° |
| 2026-04-27 17:27 | 30.32245 | 130.82258 | 10458 ft | 220 kts | 21° |
| 2026-04-27 17:28 | 30.33597 | 130.83072 | 10137 ft | 218 kts | 21° |
| 2026-04-27 17:28 | 30.34929 | 130.83876 | 9919 ft | 211 kts | 21° |
| 2026-04-27 17:28 | 30.37392 | 130.85352 | 9903 ft | 192 kts | 20° |
| 2026-04-27 17:29 | 30.38611 | 130.86083 | 9550 ft | 202 kts | 21° |
| 2026-04-27 17:29 | 30.39873 | 130.86849 | 9190 ft | 207 kts | 22° |
| 2026-04-27 17:29 | 30.41165 | 130.87631 | 8791 ft | 211 kts | 22° |
| 2026-04-27 17:29 | 30.42474 | 130.88425 | 8388 ft | 211 kts | 22° |
| 2026-04-27 17:30 | 30.43764 | 130.89208 | 7967 ft | 205 kts | 23° |
| 2026-04-27 17:30 | 30.46239 | 130.90697 | 7154 ft | 199 kts | 23° |
| 2026-04-27 17:30 | 30.47464 | 130.91436 | 6746 ft | 198 kts | 24° |
| 2026-04-27 17:31 | 30.48680 | 130.92171 | 6342 ft | 196 kts | 24° |
| 2026-04-27 17:31 | 30.49880 | 130.92896 | 5940 ft | 193 kts | 24° |
| 2026-04-27 17:31 | 30.51072 | 130.93616 | 5551 ft | 193 kts | 24° |
| 2026-04-27 17:31 | 30.52260 | 130.94333 | 5156 ft | 193 kts | 24° |
| 2026-04-27 17:32 | 30.53446 | 130.95051 | 4766 ft | 192 kts | 25° |
| 2026-04-27 17:32 | 30.55808 | 130.96488 | 3943 ft | 192 kts | 27° |
| 2026-04-27 17:32 | 30.56790 | 130.97527 | 3524 ft | 194 kts | 53° |
| 2026-04-27 17:33 | 30.57345 | 130.98949 | 3081 ft | 194 kts | 78° |
| 2026-04-27 17:33 | 30.57366 | 131.00429 | 3007 ft | 176 kts | 100° |
| 2026-04-27 17:33 | 30.56959 | 131.01784 | 2996 ft | 181 kts | 122° |
| 2026-04-27 17:33 | 30.56148 | 131.02860 | 2996 ft | 174 kts | 145° |
| 2026-04-27 17:34 | 30.55190 | 131.03713 | 2996 ft | 175 kts | 144° |
| 2026-04-27 17:34 | 30.54240 | 131.04590 | 3001 ft | 178 kts | 144° |
| 2026-04-27 17:34 | 30.53264 | 131.05471 | 3003 ft | 176 kts | 144° |
| 2026-04-27 17:34 | 30.52304 | 131.06334 | 3002 ft | 173 kts | 144° |
| 2026-04-27 17:35 | 30.51346 | 131.07204 | 2998 ft | 172 kts | 144° |
| 2026-04-27 17:35 | 30.50413 | 131.08049 | 2996 ft | 172 kts | 144° |
| 2026-04-27 17:35 | 30.49480 | 131.08916 | 2995 ft | 172 kts | 140° |
| 2026-04-27 17:35 | 30.48892 | 131.10120 | 2995 ft | 175 kts | 104° |
| 2026-04-27 17:36 | 30.48897 | 131.11523 | 2999 ft | 176 kts | 74° |
| 2026-04-27 17:36 | 30.49501 | 131.12738 | 3002 ft | 174 kts | 42° |
| 2026-04-27 17:36 | 30.50521 | 131.13435 | 3004 ft | 167 kts | 13° |
| 2026-04-27 17:36 | 30.51646 | 131.13494 | 2910 ft | 162 kts | 345° |
| 2026-04-27 17:37 | 30.52650 | 131.12944 | 2732 ft | 159 kts | 317° |
| 2026-04-27 17:37 | 30.53326 | 131.11975 | 2560 ft | 153 kts | 299° |
| 2026-04-27 17:37 | 30.53896 | 131.10935 | 2390 ft | 152 kts | 300° |
| 2026-04-27 17:37 | 30.54483 | 131.09909 | 2214 ft | 152 kts | 301° |
| 2026-04-27 17:38 | 30.55067 | 131.08894 | 2103 ft | 149 kts | 301° |
| 2026-04-27 17:38 | 30.55623 | 131.07880 | 2103 ft | 150 kts | 300° |
| 2026-04-27 17:38 | 30.56201 | 131.06863 | 2104 ft | 151 kts | 300° |
| 2026-04-27 17:38 | 30.56783 | 131.05811 | 1937 ft | 159 kts | 301° |
| 2026-04-27 17:39 | 30.57383 | 131.04766 | 1736 ft | 147 kts | 301° |
| 2026-04-27 17:39 | 30.57886 | 131.03842 | 1555 ft | 121 kts | 299° |
| 2026-04-27 17:39 | 30.58282 | 131.03136 | 1412 ft | 99 kts | 299° |
| 2026-04-27 17:39 | 30.58620 | 131.02488 | 1293 ft | 91 kts | 299° |
| 2026-04-27 17:40 | 30.58971 | 131.01857 | 1174 ft | 95 kts | 297° |
| 2026-04-27 17:40 | 30.59340 | 131.01218 | 1047 ft | 94 kts | 300° |
| 2026-04-27 17:40 | 30.59703 | 131.00587 | 931 ft | 93 kts | 301° |
| 2026-04-27 17:40 | 30.60050 | 130.99962 | 796 ft | 91 kts | 301° |
| 2026-04-27 17:41 | 30.60346 | 130.99441 | 768 ft | 53 kts | 304° |
| 2026-04-27 17:41 | 30.60470 | 130.99219 | 770 ft | 17 kts | 301° |
| 2026-04-27 17:41 | 30.60514 | 130.99144 | 770 ft | 11 kts | 304° |
| 2026-04-27 17:41 | 30.60560 | 130.99062 | 772 ft | 14 kts | 303° |
| 2026-04-27 17:42 | 30.60601 | 130.98991 | 773 ft | 5 kts | 303° |
| 2026-04-27 17:42 | 30.60618 | 130.98965 | 774 ft | 5 kts | 327° |
| 2026-04-27 17:42 | 30.60668 | 130.98967 | 774 ft | 11 kts | 28° |
| 2026-04-27 17:42 | 30.60739 | 130.99020 | 775 ft | 8 kts | 33° |
| 2026-04-27 17:43 | 30.60787 | 130.99056 | 775 ft | 8 kts | 36° |
| 2026-04-27 17:43 | 30.60826 | 130.99101 | 775 ft | 8 kts | 52° |
| 2026-04-27 17:43 | 30.60852 | 130.99123 | 775 ft | 3 kts | 6° |
| 2026-04-27 17:43 | 30.60869 | 130.99125 | 775 ft | 0 kts | 7° |
| 2026-04-27 17:44 | 30.60878 | 130.99126 | 775 ft | 4 kts | 6° |
| 2026-04-27 17:44 | 30.60883 | 130.99126 | 775 ft | 0 kts | 6° |